sensor_id;sensor_type;location;lat;lon;timestamp;temperature;humidity
10597;DHT22;5346;48.766;8.674;2023-04-24T00:00:41;7.60;1.00
10597;DHT22;5346;48.766;8.674;2023-04-24T00:03:15;7.60;1.00
10597;DHT22;5346;48.766;8.674;2023-04-24T00:05:42;7.60;1.00
10597;DHT22;5346;48.766;8.674;2023-04-24T00:08:17;7.60;1.00
10597;DHT22;5346;48.766;8.674;2023-04-24T00:10:51;7.50;1.00
10597;DHT22;5346;48.766;8.674;2023-04-24T00:13:25;7.50;1.00
10597;DHT22;5346;48.766;8.674;2023-04-24T00:15:55;7.50;1.00
10597;DHT22;5346;48.766;8.674;2023-04-24T00:18:29;7.50;1.20
10597;DHT22;5346;48.766;8.674;2023-04-24T00:20:56;7.50;26.70
10597;DHT22;5346;48.766;8.674;2023-04-24T00:23:24;7.50;99.90
10597;DHT22;5346;48.766;8.674;2023-04-24T00:25:57;7.40;99.90
10597;DHT22;5346;48.766;8.674;2023-04-24T00:28:25;7.50;99.90
10597;DHT22;5346;48.766;8.674;2023-04-24T00:30:58;7.40;99.90
10597;DHT22;5346;48.766;8.674;2023-04-24T00:33:25;7.40;99.90
10597;DHT22;5346;48.766;8.674;2023-04-24T00:35:53;7.40;99.90
10597;DHT22;5346;48.766;8.674;2023-04-24T00:38:26;7.40;99.90
10597;DHT22;5346;48.766;8.674;2023-04-24T00:41:00;7.40;99.90
10597;DHT22;5346;48.766;8.674;2023-04-24T00:43:34;7.40;99.90
10597;DHT22;5346;48.766;8.674;2023-04-24T00:46:04;7.40;99.90
10597;DHT22;5346;48.766;8.674;2023-04-24T00:48:39;7.40;99.90
10597;DHT22;5346;48.766;8.674;2023-04-24T00:51:07;7.40;99.90
10597;DHT22;5346;48.766;8.674;2023-04-24T00:53:41;7.50;99.90
10597;DHT22;5346;48.766;8.674;2023-04-24T00:56:09;7.50;99.90
10597;DHT22;5346;48.766;8.674;2023-04-24T00:58:44;7.50;99.90
10597;DHT22;5346;48.766;8.674;2023-04-24T01:01:11;7.50;99.90
10597;DHT22;5346;48.766;8.674;2023-04-24T01:04:00;7.50;99.90
10597;DHT22;5346;48.766;8.674;2023-04-24T01:06:29;7.50;99.90
10597;DHT22;5346;48.766;8.674;2023-04-24T01:09:05;7.50;99.90
10597;DHT22;5346;48.766;8.674;2023-04-24T01:11:34;7.50;99.90
10597;DHT22;5346;48.766;8.674;2023-04-24T01:14:09;7.50;99.90
10597;DHT22;5346;48.766;8.674;2023-04-24T01:16:36;7.50;99.90
10597;DHT22;5346;48.766;8.674;2023-04-24T01:19:11;7.50;99.90
10597;DHT22;5346;48.766;8.674;2023-04-24T01:21:42;7.50;99.90
10597;DHT22;5346;48.766;8.674;2023-04-24T01:24:16;7.40;99.90
10597;DHT22;5346;48.766;8.674;2023-04-24T01:26:52;7.40;99.90
10597;DHT22;5346;48.766;8.674;2023-04-24T01:29:26;7.40;99.90
10597;DHT22;5346;48.766;8.674;2023-04-24T01:32:00;7.40;99.90
10597;DHT22;5346;48.766;8.674;2023-04-24T01:34:28;7.30;1.00
10597;DHT22;5346;48.766;8.674;2023-04-24T01:37:03;7.40;1.00
10597;DHT22;5346;48.766;8.674;2023-04-24T01:39:38;7.30;1.00
10597;DHT22;5346;48.766;8.674;2023-04-24T01:42:06;7.40;1.00
10597;DHT22;5346;48.766;8.674;2023-04-24T01:44:40;7.40;1.00
10597;DHT22;5346;48.766;8.674;2023-04-24T01:47:08;7.30;1.00
10597;DHT22;5346;48.766;8.674;2023-04-24T01:49:42;7.30;1.00
10597;DHT22;5346;48.766;8.674;2023-04-24T01:52:10;7.20;1.00
10597;DHT22;5346;48.766;8.674;2023-04-24T01:54:43;7.20;1.00
10597;DHT22;5346;48.766;8.674;2023-04-24T01:57:11;7.20;84.60
10597;DHT22;5346;48.766;8.674;2023-04-24T01:59:44;7.20;99.90
10597;DHT22;5346;48.766;8.674;2023-04-24T02:02:18;7.20;99.90
10597;DHT22;5346;48.766;8.674;2023-04-24T02:05:01;7.30;99.90
10597;DHT22;5346;48.766;8.674;2023-04-24T02:07:34;7.30;99.90
10597;DHT22;5346;48.766;8.674;2023-04-24T02:10:09;7.30;99.90
10597;DHT22;5346;48.766;8.674;2023-04-24T02:12:43;7.30;99.90
10597;DHT22;5346;48.766;8.674;2023-04-24T02:15:10;7.30;99.90
10597;DHT22;5346;48.766;8.674;2023-04-24T02:17:44;7.30;1.00
10597;DHT22;5346;48.766;8.674;2023-04-24T02:20:18;7.30;1.00
10597;DHT22;5346;48.766;8.674;2023-04-24T02:22:52;7.20;1.00
10597;DHT22;5346;48.766;8.674;2023-04-24T02:25:20;7.20;33.10
10597;DHT22;5346;48.766;8.674;2023-04-24T02:27:53;7.10;99.90
10597;DHT22;5346;48.766;8.674;2023-04-24T02:30:27;7.10;99.90
10597;DHT22;5346;48.766;8.674;2023-04-24T02:33:01;7.00;99.90
10597;DHT22;5346;48.766;8.674;2023-04-24T02:35:35;7.00;1.00
10597;DHT22;5346;48.766;8.674;2023-04-24T02:38:08;6.90;1.00
10597;DHT22;5346;48.766;8.674;2023-04-24T02:40:35;6.90;1.00
10597;DHT22;5346;48.766;8.674;2023-04-24T02:43:09;6.80;1.00
10597;DHT22;5346;48.766;8.674;2023-04-24T02:45:36;6.70;1.00
10597;DHT22;5346;48.766;8.674;2023-04-24T02:48:11;6.70;1.00
10597;DHT22;5346;48.766;8.674;2023-04-24T02:50:38;6.70;1.00
10597;DHT22;5346;48.766;8.674;2023-04-24T02:53:11;6.70;1.00
10597;DHT22;5346;48.766;8.674;2023-04-24T02:55:38;6.70;4.50
10597;DHT22;5346;48.766;8.674;2023-04-24T02:58:12;6.70;36.40
10597;DHT22;5346;48.766;8.674;2023-04-24T03:00:39;6.70;74.80
10597;DHT22;5346;48.766;8.674;2023-04-24T03:03:14;6.70;99.70
10597;DHT22;5346;48.766;8.674;2023-04-24T03:05:55;6.70;99.90
10597;DHT22;5346;48.766;8.674;2023-04-24T03:08:22;6.60;99.90
10597;DHT22;5346;48.766;8.674;2023-04-24T03:10:57;6.60;99.90
10597;DHT22;5346;48.766;8.674;2023-04-24T03:13:31;6.50;99.90
10597;DHT22;5346;48.766;8.674;2023-04-24T03:15:58;6.40;99.90
10597;DHT22;5346;48.766;8.674;2023-04-24T03:18:32;6.40;99.90
10597;DHT22;5346;48.766;8.674;2023-04-24T03:21:06;6.40;99.90
10597;DHT22;5346;48.766;8.674;2023-04-24T03:23:40;6.30;99.90
10597;DHT22;5346;48.766;8.674;2023-04-24T03:26:14;6.40;99.90
10597;DHT22;5346;48.766;8.674;2023-04-24T03:28:48;6.40;99.90
10597;DHT22;5346;48.766;8.674;2023-04-24T03:31:22;6.50;99.90
10597;DHT22;5346;48.766;8.674;2023-04-24T03:33:56;6.50;99.90
10597;DHT22;5346;48.766;8.674;2023-04-24T03:36:30;6.50;99.90
10597;DHT22;5346;48.766;8.674;2023-04-24T03:38:58;6.60;99.90
10597;DHT22;5346;48.766;8.674;2023-04-24T03:41:32;6.60;99.90
10597;DHT22;5346;48.766;8.674;2023-04-24T03:44:07;6.60;99.90
10597;DHT22;5346;48.766;8.674;2023-04-24T03:46:34;6.70;1.00
10597;DHT22;5346;48.766;8.674;2023-04-24T03:49:08;6.40;99.90
10597;DHT22;5346;48.766;8.674;2023-04-24T03:51:35;6.10;1.00
10597;DHT22;5346;48.766;8.674;2023-04-24T03:54:10;5.80;1.00
10597;DHT22;5346;48.766;8.674;2023-04-24T03:56:44;5.70;99.90
10597;DHT22;5346;48.766;8.674;2023-04-24T03:59:18;5.50;99.90
10597;DHT22;5346;48.766;8.674;2023-04-24T04:01:59;5.40;99.90
10597;DHT22;5346;48.766;8.674;2023-04-24T04:04:39;5.30;99.90
10597;DHT22;5346;48.766;8.674;2023-04-24T04:07:14;5.30;99.90
10597;DHT22;5346;48.766;8.674;2023-04-24T04:09:41;5.20;1.00
10597;DHT22;5346;48.766;8.674;2023-04-24T04:12:08;5.20;1.00
10597;DHT22;5346;48.766;8.674;2023-04-24T04:14:42;5.20;1.00
10597;DHT22;5346;48.766;8.674;2023-04-24T04:17:16;5.20;1.00
10597;DHT22;5346;48.766;8.674;2023-04-24T04:19:50;5.20;1.00
10597;DHT22;5346;48.766;8.674;2023-04-24T04:22:17;5.30;1.00
10597;DHT22;5346;48.766;8.674;2023-04-24T04:24:52;5.30;1.00
10597;DHT22;5346;48.766;8.674;2023-04-24T04:27:19;5.30;26.40
10597;DHT22;5346;48.766;8.674;2023-04-24T04:29:55;5.30;76.10
10597;DHT22;5346;48.766;8.674;2023-04-24T04:32:32;5.30;99.90
10597;DHT22;5346;48.766;8.674;2023-04-24T04:35:00;5.40;99.90
10597;DHT22;5346;48.766;8.674;2023-04-24T04:37:36;5.40;99.90
10597;DHT22;5346;48.766;8.674;2023-04-24T04:40:10;5.40;99.90
10597;DHT22;5346;48.766;8.674;2023-04-24T04:42:47;5.40;99.90
10597;DHT22;5346;48.766;8.674;2023-04-24T04:45:14;5.40;85.30
10597;DHT22;5346;48.766;8.674;2023-04-24T04:47:49;5.40;62.30
10597;DHT22;5346;48.766;8.674;2023-04-24T04:50:17;5.40;63.70
10597;DHT22;5346;48.766;8.674;2023-04-24T04:52:52;5.40;47.90
10597;DHT22;5346;48.766;8.674;2023-04-24T04:55:21;5.40;37.80
10597;DHT22;5346;48.766;8.674;2023-04-24T04:57:55;5.40;30.10
10597;DHT22;5346;48.766;8.674;2023-04-24T05:00:23;5.40;23.20
10597;DHT22;5346;48.766;8.674;2023-04-24T05:03:08;5.40;1.00
10597;DHT22;5346;48.766;8.674;2023-04-24T05:05:47;5.40;1.00
10597;DHT22;5346;48.766;8.674;2023-04-24T05:08:14;5.40;1.00
10597;DHT22;5346;48.766;8.674;2023-04-24T05:10:54;5.40;1.00
10597;DHT22;5346;48.766;8.674;2023-04-24T05:13:28;5.50;1.00
10597;DHT22;5346;48.766;8.674;2023-04-24T05:16:08;5.50;1.00
10597;DHT22;5346;48.766;8.674;2023-04-24T05:18:35;5.60;1.00
10597;DHT22;5346;48.766;8.674;2023-04-24T05:21:08;5.60;1.00
10597;DHT22;5346;48.766;8.674;2023-04-24T05:23:41;5.60;99.90
10597;DHT22;5346;48.766;8.674;2023-04-24T05:26:17;5.60;99.90
10597;DHT22;5346;48.766;8.674;2023-04-24T05:28:44;5.70;99.90
10597;DHT22;5346;48.766;8.674;2023-04-24T05:31:19;5.70;99.90
10597;DHT22;5346;48.766;8.674;2023-04-24T05:33:47;5.70;89.10
10597;DHT22;5346;48.766;8.674;2023-04-24T05:36:20;5.80;62.30
10597;DHT22;5346;48.766;8.674;2023-04-24T05:38:47;5.90;99.90
10597;DHT22;5346;48.766;8.674;2023-04-24T05:41:21;6.00;78.90
10597;DHT22;5346;48.766;8.674;2023-04-24T05:43:49;6.20;1.00
10597;DHT22;5346;48.766;8.674;2023-04-24T05:46:17;6.40;1.00
10597;DHT22;5346;48.766;8.674;2023-04-24T05:48:51;6.60;99.90
10597;DHT22;5346;48.766;8.674;2023-04-24T05:51:39;6.80;99.90
10597;DHT22;5346;48.766;8.674;2023-04-24T05:54:14;7.00;99.90
10597;DHT22;5346;48.766;8.674;2023-04-24T05:56:41;7.10;1.00
10597;DHT22;5346;48.766;8.674;2023-04-24T05:59:16;7.20;1.00
10597;DHT22;5346;48.766;8.674;2023-04-24T06:01:43;7.40;1.00
10597;DHT22;5346;48.766;8.674;2023-04-24T06:04:31;7.70;1.00
10597;DHT22;5346;48.766;8.674;2023-04-24T06:07:08;8.00;99.90
10597;DHT22;5346;48.766;8.674;2023-04-24T06:09:43;8.20;99.90
10597;DHT22;5346;48.766;8.674;2023-04-24T06:12:11;8.30;1.00
10597;DHT22;5346;48.766;8.674;2023-04-24T06:14:46;8.30;1.00
10597;DHT22;5346;48.766;8.674;2023-04-24T06:17:20;8.40;99.90
10597;DHT22;5346;48.766;8.674;2023-04-24T06:19:54;8.50;99.90
10597;DHT22;5346;48.766;8.674;2023-04-24T06:22:28;8.50;71.50
10597;DHT22;5346;48.766;8.674;2023-04-24T06:24:55;8.30;1.00
10597;DHT22;5346;48.766;8.674;2023-04-24T06:27:29;8.10;99.90
10597;DHT22;5346;48.766;8.674;2023-04-24T06:29:56;8.00;99.90
10597;DHT22;5346;48.766;8.674;2023-04-24T06:32:31;7.90;99.90
10597;DHT22;5346;48.766;8.674;2023-04-24T06:34:58;8.00;1.00
10597;DHT22;5346;48.766;8.674;2023-04-24T06:37:32;8.00;1.00
10597;DHT22;5346;48.766;8.674;2023-04-24T06:40:14;8.10;1.00
10597;DHT22;5346;48.766;8.674;2023-04-24T06:42:41;7.90;1.00
10597;DHT22;5346;48.766;8.674;2023-04-24T06:45:16;8.10;1.00
10597;DHT22;5346;48.766;8.674;2023-04-24T06:47:50;7.90;1.00
10597;DHT22;5346;48.766;8.674;2023-04-24T06:50:24;7.90;99.90
10597;DHT22;5346;48.766;8.674;2023-04-24T06:52:57;7.70;99.90
10597;DHT22;5346;48.766;8.674;2023-04-24T06:55:31;7.70;99.90
10597;DHT22;5346;48.766;8.674;2023-04-24T06:58:00;7.70;99.90
10597;DHT22;5346;48.766;8.674;2023-04-24T07:00:33;7.80;99.90
10597;DHT22;5346;48.766;8.674;2023-04-24T07:05:51;7.80;1.00
10597;DHT22;5346;48.766;8.674;2023-04-24T07:08:26;7.60;1.00
10597;DHT22;5346;48.766;8.674;2023-04-24T07:11:01;7.60;1.00
10597;DHT22;5346;48.766;8.674;2023-04-24T07:13:28;7.60;1.00
10597;DHT22;5346;48.766;8.674;2023-04-24T07:16:01;7.70;1.00
10597;DHT22;5346;48.766;8.674;2023-04-24T07:18:29;7.80;1.00
10597;DHT22;5346;48.766;8.674;2023-04-24T07:21:04;7.80;1.00
10597;DHT22;5346;48.766;8.674;2023-04-24T07:23:32;7.90;1.00
10597;DHT22;5346;48.766;8.674;2023-04-24T07:26:07;8.10;1.00
10597;DHT22;5346;48.766;8.674;2023-04-24T07:28:34;8.00;99.90
10597;DHT22;5346;48.766;8.674;2023-04-24T07:31:08;7.80;99.90
10597;DHT22;5346;48.766;8.674;2023-04-24T07:33:35;7.70;1.00
10597;DHT22;5346;48.766;8.674;2023-04-24T07:36:09;7.70;99.90
10597;DHT22;5346;48.766;8.674;2023-04-24T07:38:50;7.50;99.90
10597;DHT22;5346;48.766;8.674;2023-04-24T07:41:24;7.40;99.90
10597;DHT22;5346;48.766;8.674;2023-04-24T07:43:52;7.40;1.00
10597;DHT22;5346;48.766;8.674;2023-04-24T07:46:26;7.40;99.90
10597;DHT22;5346;48.766;8.674;2023-04-24T07:48:57;7.50;99.90
10597;DHT22;5346;48.766;8.674;2023-04-24T07:51:40;7.30;99.90
10597;DHT22;5346;48.766;8.674;2023-04-24T07:54:15;7.20;1.40
10597;DHT22;5346;48.766;8.674;2023-04-24T07:56:50;7.30;1.00
10597;DHT22;5346;48.766;8.674;2023-04-24T07:59:23;7.50;1.00
10597;DHT22;5346;48.766;8.674;2023-04-24T08:01:59;7.50;99.90
10597;DHT22;5346;48.766;8.674;2023-04-24T08:04:33;7.40;1.00
10597;DHT22;5346;48.766;8.674;2023-04-24T08:07:09;7.40;1.00
10597;DHT22;5346;48.766;8.674;2023-04-24T08:09:37;7.10;1.00
10597;DHT22;5346;48.766;8.674;2023-04-24T08:12:11;6.60;54.10
10597;DHT22;5346;48.766;8.674;2023-04-24T08:14:44;6.30;99.90
10597;DHT22;5346;48.766;8.674;2023-04-24T08:17:18;5.90;1.00
10597;DHT22;5346;48.766;8.674;2023-04-24T08:19:53;5.70;1.00
10597;DHT22;5346;48.766;8.674;2023-04-24T08:22:28;5.60;99.90
10597;DHT22;5346;48.766;8.674;2023-04-24T08:25:04;5.60;99.90
10597;DHT22;5346;48.766;8.674;2023-04-24T08:27:33;5.60;1.00
10597;DHT22;5346;48.766;8.674;2023-04-24T08:30:08;5.60;99.90
10597;DHT22;5346;48.766;8.674;2023-04-24T08:32:43;5.60;1.00
10597;DHT22;5346;48.766;8.674;2023-04-24T08:35:18;5.80;86.90
10597;DHT22;5346;48.766;8.674;2023-04-24T08:37:46;6.00;1.00
10597;DHT22;5346;48.766;8.674;2023-04-24T08:40:26;6.10;1.00
10597;DHT22;5346;48.766;8.674;2023-04-24T08:42:59;6.00;1.00
10597;DHT22;5346;48.766;8.674;2023-04-24T08:45:34;5.80;99.90
10597;DHT22;5346;48.766;8.674;2023-04-24T08:48:02;5.80;99.90
10597;DHT22;5346;48.766;8.674;2023-04-24T08:50:37;5.70;99.90
10597;DHT22;5346;48.766;8.674;2023-04-24T08:53:14;5.80;99.90
10597;DHT22;5346;48.766;8.674;2023-04-24T08:55:51;6.00;1.00
10597;DHT22;5346;48.766;8.674;2023-04-24T08:58:21;6.00;99.90
10597;DHT22;5346;48.766;8.674;2023-04-24T09:00:58;6.00;1.00
10597;DHT22;5346;48.766;8.674;2023-04-24T09:03:33;6.10;99.90
10597;DHT22;5346;48.766;8.674;2023-04-24T09:06:09;6.20;99.90
10597;DHT22;5346;48.766;8.674;2023-04-24T09:08:42;6.30;1.00
10597;DHT22;5346;48.766;8.674;2023-04-24T09:11:20;6.40;99.90
10597;DHT22;5346;48.766;8.674;2023-04-24T09:13:48;6.30;1.00
10597;DHT22;5346;48.766;8.674;2023-04-24T09:16:23;6.30;1.00
10597;DHT22;5346;48.766;8.674;2023-04-24T09:18:53;6.10;1.00
10597;DHT22;5346;48.766;8.674;2023-04-24T09:21:32;6.00;1.00
10597;DHT22;5346;48.766;8.674;2023-04-24T09:24:14;5.90;1.00
10597;DHT22;5346;48.766;8.674;2023-04-24T09:26:58;6.00;1.00
10597;DHT22;5346;48.766;8.674;2023-04-24T09:29:28;6.10;1.00
10597;DHT22;5346;48.766;8.674;2023-04-24T09:32:18;5.90;1.00
10597;DHT22;5346;48.766;8.674;2023-04-24T09:34:49;5.80;1.00
10597;DHT22;5346;48.766;8.674;2023-04-24T09:37:30;6.20;99.90
10597;DHT22;5346;48.766;8.674;2023-04-24T09:40:16;6.80;12.80
10597;DHT22;5346;48.766;8.674;2023-04-24T09:42:56;7.20;99.90
10597;DHT22;5346;48.766;8.674;2023-04-24T09:45:38;7.50;99.90
10597;DHT22;5346;48.766;8.674;2023-04-24T09:48:14;7.80;1.00
10597;DHT22;5346;48.766;8.674;2023-04-24T09:50:46;8.40;99.90
10597;DHT22;5346;48.766;8.674;2023-04-24T09:53:24;8.80;99.90
10597;DHT22;5346;48.766;8.674;2023-04-24T09:56:06;9.00;99.90
10597;DHT22;5346;48.766;8.674;2023-04-24T09:58:43;9.10;99.90
10597;DHT22;5346;48.766;8.674;2023-04-24T10:01:13;8.90;69.30
10597;DHT22;5346;48.766;8.674;2023-04-24T10:03:48;8.60;99.90
10597;DHT22;5346;48.766;8.674;2023-04-24T10:06:37;8.10;99.90
10597;DHT22;5346;48.766;8.674;2023-04-24T10:09:11;7.90;99.90
10597;DHT22;5346;48.766;8.674;2023-04-24T10:11:48;7.40;99.90
10597;DHT22;5346;48.766;8.674;2023-04-24T10:14:25;7.80;99.90
10597;DHT22;5346;48.766;8.674;2023-04-24T10:16:56;7.90;99.90
10597;DHT22;5346;48.766;8.674;2023-04-24T10:19:33;8.10;99.90
10597;DHT22;5346;48.766;8.674;2023-04-24T10:22:09;8.10;99.90
10597;DHT22;5346;48.766;8.674;2023-04-24T10:24:45;8.20;99.90
10597;DHT22;5346;48.766;8.674;2023-04-24T10:27:23;7.80;99.90
10597;DHT22;5346;48.766;8.674;2023-04-24T10:29:56;7.50;99.90
10597;DHT22;5346;48.766;8.674;2023-04-24T10:32:30;7.30;99.90
10597;DHT22;5346;48.766;8.674;2023-04-24T10:35:09;7.10;99.90
10597;DHT22;5346;48.766;8.674;2023-04-24T10:37:58;7.00;99.90
10597;DHT22;5346;48.766;8.674;2023-04-24T10:40:35;6.70;99.90
10597;DHT22;5346;48.766;8.674;2023-04-24T10:43:05;6.80;99.90
10597;DHT22;5346;48.766;8.674;2023-04-24T10:46:01;6.90;99.90
10597;DHT22;5346;48.766;8.674;2023-04-24T10:48:31;7.40;99.90
10597;DHT22;5346;48.766;8.674;2023-04-24T10:51:11;8.00;99.90
10597;DHT22;5346;48.766;8.674;2023-04-24T10:53:41;8.70;93.70
10597;DHT22;5346;48.766;8.674;2023-04-24T10:56:17;9.20;99.90
10597;DHT22;5346;48.766;8.674;2023-04-24T10:58:50;9.50;1.00
10597;DHT22;5346;48.766;8.674;2023-04-24T11:01:26;9.20;4.70
10597;DHT22;5346;48.766;8.674;2023-04-24T11:04:02;8.70;23.90
10597;DHT22;5346;48.766;8.674;2023-04-24T11:06:44;8.30;56.10
10597;DHT22;5346;48.766;8.674;2023-04-24T11:09:15;7.60;99.90
10597;DHT22;5346;48.766;8.674;2023-04-24T11:11:50;7.20;99.90
10597;DHT22;5346;48.766;8.674;2023-04-24T11:15:00;7.20;99.90
10597;DHT22;5346;48.766;8.674;2023-04-24T11:17:37;7.40;1.00
10597;DHT22;5346;48.766;8.674;2023-04-24T11:20:08;8.10;99.90
10597;DHT22;5346;48.766;8.674;2023-04-24T11:22:54;9.00;99.90
10597;DHT22;5346;48.766;8.674;2023-04-24T11:25:22;10.10;3.70
10597;DHT22;5346;48.766;8.674;2023-04-24T11:28:05;11.30;7.30
10597;DHT22;5346;48.766;8.674;2023-04-24T11:30:39;12.40;1.00
10597;DHT22;5346;48.766;8.674;2023-04-24T11:33:08;12.00;1.00
10597;DHT22;5346;48.766;8.674;2023-04-24T11:35:42;10.60;1.00
10597;DHT22;5346;48.766;8.674;2023-04-24T11:38:18;10.10;1.00
10597;DHT22;5346;48.766;8.674;2023-04-24T11:40:52;9.70;1.00
10597;DHT22;5346;48.766;8.674;2023-04-24T11:43:28;9.00;1.00
10597;DHT22;5346;48.766;8.674;2023-04-24T11:46:04;8.70;1.00
10597;DHT22;5346;48.766;8.674;2023-04-24T11:48:36;8.50;14.40
10597;DHT22;5346;48.766;8.674;2023-04-24T11:51:14;9.00;1.00
10597;DHT22;5346;48.766;8.674;2023-04-24T11:53:48;8.90;1.00
10597;DHT22;5346;48.766;8.674;2023-04-24T11:56:31;9.00;1.00
10597;DHT22;5346;48.766;8.674;2023-04-24T11:59:06;9.20;1.00
10597;DHT22;5346;48.766;8.674;2023-04-24T12:01:45;9.40;1.00
10597;DHT22;5346;48.766;8.674;2023-04-24T12:04:20;9.80;1.00
10597;DHT22;5346;48.766;8.674;2023-04-24T12:07:02;10.40;1.00
10597;DHT22;5346;48.766;8.674;2023-04-24T12:09:43;11.30;1.00
10597;DHT22;5346;48.766;8.674;2023-04-24T12:12:24;11.40;1.00
10597;DHT22;5346;48.766;8.674;2023-04-24T12:14:55;11.20;1.00
10597;DHT22;5346;48.766;8.674;2023-04-24T12:17:32;11.00;1.00
10597;DHT22;5346;48.766;8.674;2023-04-24T12:20:08;10.40;1.00
10597;DHT22;5346;48.766;8.674;2023-04-24T12:22:56;9.50;1.00
10597;DHT22;5346;48.766;8.674;2023-04-24T12:25:29;8.00;99.90
10597;DHT22;5346;48.766;8.674;2023-04-24T12:30:34;7.30;1.00
10597;DHT22;5346;48.766;8.674;2023-04-24T12:33:13;7.50;1.00
10597;DHT22;5346;48.766;8.674;2023-04-24T12:35:50;7.60;1.00
10597;DHT22;5346;48.766;8.674;2023-04-24T12:38:27;7.50;1.00
10597;DHT22;5346;48.766;8.674;2023-04-24T12:43:51;7.40;1.00
10597;DHT22;5346;48.766;8.674;2023-04-24T12:46:20;7.20;1.00
10597;DHT22;5346;48.766;8.674;2023-04-24T12:48:54;7.60;1.00
10597;DHT22;5346;48.766;8.674;2023-04-24T12:51:23;8.60;99.90
10597;DHT22;5346;48.766;8.674;2023-04-24T12:53:51;9.10;99.90
10597;DHT22;5346;48.766;8.674;2023-04-24T12:56:27;9.20;99.90
10597;DHT22;5346;48.766;8.674;2023-04-24T12:58:55;9.10;99.90
10597;DHT22;5346;48.766;8.674;2023-04-24T13:01:29;8.40;99.90
10597;DHT22;5346;48.766;8.674;2023-04-24T13:04:05;7.60;1.00
10597;DHT22;5346;48.766;8.674;2023-04-24T13:06:47;7.10;1.00
10597;DHT22;5346;48.766;8.674;2023-04-24T13:09:14;6.70;99.90
10597;DHT22;5346;48.766;8.674;2023-04-24T13:11:48;6.60;1.00
10597;DHT22;5346;48.766;8.674;2023-04-24T13:14:15;6.90;99.90
10597;DHT22;5346;48.766;8.674;2023-04-24T13:16:50;7.30;1.00
10597;DHT22;5346;48.766;8.674;2023-04-24T13:19:18;7.80;1.00
10597;DHT22;5346;48.766;8.674;2023-04-24T13:21:57;8.00;1.00
10597;DHT22;5346;48.766;8.674;2023-04-24T13:24:26;8.20;99.90
10597;DHT22;5346;48.766;8.674;2023-04-24T13:27:00;8.10;99.90
10597;DHT22;5346;48.766;8.674;2023-04-24T13:29:36;7.80;98.00
10597;DHT22;5346;48.766;8.674;2023-04-24T13:32:11;7.60;99.90
10597;DHT22;5346;48.766;8.674;2023-04-24T13:34:38;7.60;99.90
10597;DHT22;5346;48.766;8.674;2023-04-24T13:37:13;7.30;99.90
10597;DHT22;5346;48.766;8.674;2023-04-24T13:39:40;7.60;1.00
10597;DHT22;5346;48.766;8.674;2023-04-24T13:42:14;8.00;99.90
10597;DHT22;5346;48.766;8.674;2023-04-24T13:44:45;8.80;1.00
10597;DHT22;5346;48.766;8.674;2023-04-24T13:47:23;9.50;1.00
10597;DHT22;5346;48.766;8.674;2023-04-24T13:49:57;9.80;99.90
10597;DHT22;5346;48.766;8.674;2023-04-24T13:52:34;10.20;99.90
10597;DHT22;5346;48.766;8.674;2023-04-24T13:55:07;9.90;99.90
10597;DHT22;5346;48.766;8.674;2023-04-24T13:57:37;9.80;99.90
10597;DHT22;5346;48.766;8.674;2023-04-24T14:00:12;9.70;99.90
10597;DHT22;5346;48.766;8.674;2023-04-24T14:02:46;9.70;99.90
10597;DHT22;5346;48.766;8.674;2023-04-24T14:05:29;9.10;99.90
10597;DHT22;5346;48.766;8.674;2023-04-24T14:07:56;8.60;99.90
10597;DHT22;5346;48.766;8.674;2023-04-24T14:10:30;8.50;99.90
10597;DHT22;5346;48.766;8.674;2023-04-24T14:13:05;8.90;99.90
10597;DHT22;5346;48.766;8.674;2023-04-24T14:15:40;9.50;99.90
10597;DHT22;5346;48.766;8.674;2023-04-24T14:18:07;10.20;39.70
10597;DHT22;5346;48.766;8.674;2023-04-24T14:20:41;9.90;51.00
10597;DHT22;5346;48.766;8.674;2023-04-24T14:23:08;9.60;54.20
10597;DHT22;5346;48.766;8.674;2023-04-24T14:25:36;9.60;95.90
10597;DHT22;5346;48.766;8.674;2023-04-24T14:28:12;10.50;58.40
10597;DHT22;5346;48.766;8.674;2023-04-24T14:30:46;11.10;1.00
10597;DHT22;5346;48.766;8.674;2023-04-24T14:33:15;11.30;1.00
10597;DHT22;5346;48.766;8.674;2023-04-24T14:35:59;10.90;1.00
10597;DHT22;5346;48.766;8.674;2023-04-24T14:38:46;10.10;1.00
10597;DHT22;5346;48.766;8.674;2023-04-24T14:41:20;9.20;14.70
10597;DHT22;5346;48.766;8.674;2023-04-24T14:43:55;8.60;99.90
10597;DHT22;5346;48.766;8.674;2023-04-24T14:46:22;8.30;99.90
10597;DHT22;5346;48.766;8.674;2023-04-24T14:49:00;7.90;99.90
10597;DHT22;5346;48.766;8.674;2023-04-24T14:51:28;7.50;1.00
10597;DHT22;5346;48.766;8.674;2023-04-24T14:54:01;7.10;1.00
10597;DHT22;5346;48.766;8.674;2023-04-24T14:56:36;6.80;99.90
10597;DHT22;5346;48.766;8.674;2023-04-24T14:59:10;6.70;1.00
10597;DHT22;5346;48.766;8.674;2023-04-24T15:01:43;6.70;1.00
10597;DHT22;5346;48.766;8.674;2023-04-24T15:04:36;6.60;1.00
10597;DHT22;5346;48.766;8.674;2023-04-24T15:07:17;6.50;1.00
10597;DHT22;5346;48.766;8.674;2023-04-24T15:09:50;6.40;1.00
10597;DHT22;5346;48.766;8.674;2023-04-24T15:12:20;6.40;99.90
10597;DHT22;5346;48.766;8.674;2023-04-24T15:14:54;6.50;98.90
10597;DHT22;5346;48.766;8.674;2023-04-24T15:17:29;6.50;50.10
10597;DHT22;5346;48.766;8.674;2023-04-24T15:19:58;6.50;50.50
10597;DHT22;5346;48.766;8.674;2023-04-24T15:22:34;7.20;99.90
10597;DHT22;5346;48.766;8.674;2023-04-24T15:25:02;8.10;99.90
10597;DHT22;5346;48.766;8.674;2023-04-24T15:27:41;9.10;1.00
10597;DHT22;5346;48.766;8.674;2023-04-24T15:30:15;9.70;99.90
10597;DHT22;5346;48.766;8.674;2023-04-24T15:32:52;10.30;99.90
10597;DHT22;5346;48.766;8.674;2023-04-24T15:35:26;10.00;99.90
10597;DHT22;5346;48.766;8.674;2023-04-24T15:38:00;9.40;99.90
10597;DHT22;5346;48.766;8.674;2023-04-24T15:40:28;9.20;99.90
10597;DHT22;5346;48.766;8.674;2023-04-24T15:43:01;9.10;99.90
10597;DHT22;5346;48.766;8.674;2023-04-24T15:45:37;8.70;99.90
10597;DHT22;5346;48.766;8.674;2023-04-24T15:48:12;8.50;99.90
10597;DHT22;5346;48.766;8.674;2023-04-24T15:50:46;8.20;99.90
10597;DHT22;5346;48.766;8.674;2023-04-24T15:53:14;8.00;99.90
10597;DHT22;5346;48.766;8.674;2023-04-24T15:55:54;7.90;99.90
10597;DHT22;5346;48.766;8.674;2023-04-24T15:58:23;8.10;99.90
10597;DHT22;5346;48.766;8.674;2023-04-24T16:00:56;8.80;99.90
10597;DHT22;5346;48.766;8.674;2023-04-24T16:03:30;9.30;99.90
10597;DHT22;5346;48.766;8.674;2023-04-24T16:06:05;9.60;88.20
10597;DHT22;5346;48.766;8.674;2023-04-24T16:08:40;9.80;1.00
10597;DHT22;5346;48.766;8.674;2023-04-24T16:11:16;10.10;1.00
10597;DHT22;5346;48.766;8.674;2023-04-24T16:13:44;10.40;1.00
10597;DHT22;5346;48.766;8.674;2023-04-24T16:16:20;10.60;1.00
10597;DHT22;5346;48.766;8.674;2023-04-24T16:18:50;10.80;1.00
10597;DHT22;5346;48.766;8.674;2023-04-24T16:21:25;10.80;1.00
10597;DHT22;5346;48.766;8.674;2023-04-24T16:24:01;10.70;1.00
10597;DHT22;5346;48.766;8.674;2023-04-24T16:26:34;10.80;1.00
10597;DHT22;5346;48.766;8.674;2023-04-24T16:29:03;10.80;1.00
10597;DHT22;5346;48.766;8.674;2023-04-24T16:31:36;10.70;1.00
10597;DHT22;5346;48.766;8.674;2023-04-24T16:34:04;10.60;1.00
10597;DHT22;5346;48.766;8.674;2023-04-24T16:36:38;10.90;1.00
10597;DHT22;5346;48.766;8.674;2023-04-24T16:39:05;10.90;1.00
10597;DHT22;5346;48.766;8.674;2023-04-24T16:41:39;10.90;1.00
10597;DHT22;5346;48.766;8.674;2023-04-24T16:44:15;10.80;1.00
10597;DHT22;5346;48.766;8.674;2023-04-24T16:46:51;10.90;1.00
10597;DHT22;5346;48.766;8.674;2023-04-24T16:49:20;11.10;1.00
10597;DHT22;5346;48.766;8.674;2023-04-24T16:51:55;11.10;1.00
10597;DHT22;5346;48.766;8.674;2023-04-24T16:54:24;10.40;1.00
10597;DHT22;5346;48.766;8.674;2023-04-24T16:56:53;9.60;1.00